Crestview, FL

8:06 AM CST on February 28, 2015 (GMT -0600)
Hurlburt | Change Station
CLOSE
Current Station
Airport
Location: Hurlburt Field,
Elevation: 39 ft
Nearby Weather Stations

Elev 39 ft 30.43 °N, 86.69 °W | Updated 8 minutes ago

Partly Cloudy
Partly Cloudy
46 °F
Feels Like 40 °F
N
12
Wind Variable Wind from NE

Today
High -- | Low -- °F
--% Chance of Precip.
Yesterday
High -- | Low -- °F
Precip. -- in
6:14 AM 5:44 PM
Waxing Gibbous, 77% visible
Pressure 30.43 in
Visibility 10.0 miles
Clouds Few 3800 ft
Scattered Clouds 10000 ft
Mostly Cloudy 14000 ft
Windchill 40 °F
Dew Point 30 °F
Humidity 54%
Rainfall 0.00 in
Snow Depth Not available.
UV 1 out of 12
Pollen 8.60 out of 12
Air Quality Not available.
Flu Activity Not available.
METAR KHRT 281358Z AUTO 04010KT 10SM FEW038 SCT100 BKN140 08/M01 A3042 RMK AO2 SLP303 T00771012 $

More Conditions Fewer Conditions

Pressure 30.43 in
Visibility 10.0 miles
Clouds Few 3800 ft
Scattered Clouds 10000 ft
Mostly Cloudy 14000 ft
Windchill 40 °F
Dew Point 30 °F
Humidity 54%
Rainfall 0.00 in
Snow Depth Not available.
UV 1 out of 12
Pollen 8.60 out of 12
Air Quality Not available.
Flu Activity Not available.
METAR KHRT 281358Z AUTO 04010KT 10SM FEW038 SCT100 BKN140 08/M01 A3042 RMK AO2 SLP303 T00771012 $

More Conditions Fewer Conditions

10-Day Weather Forecast

Almanac

Astronomy

Feb. 28, 2015 Rise Set
Actual Time
Civil Twilight
Nautical Twilight
Astronomical Twilight
Moon
Length of Visible Light
Length of Day
Tomorrow will be .
, % of the Moon is Illuminated

Today's Extremes

State Highs State Lows

Community

WunderPhotos

Upload Photos

1,801,020 photos uploaded!

WunderBlogs® & News

Nearby

Air Quality

  Air Quality AQ Index Pollutant
Not available.

Snow Depth

Station Depth Elevation

Earthquake Activity

City Distance Mag. Time & Date
Minimum magnitude displayed is 2.5.

Coastal Water Temperatures

Place Temperature

Nearby Weather Stations